sensor_id;sensor_type;location;lat;lon;timestamp;P1;durP1;ratioP1;P2;durP2;ratioP2
8825;SDS011;4449;50.872;4.714;2022-12-22T00:00:59;4.72;;;3.83;;
8825;SDS011;4449;50.872;4.714;2022-12-22T00:03:45;4.18;;;3.88;;
8825;SDS011;4449;50.872;4.714;2022-12-22T00:06:30;4.20;;;3.90;;
8825;SDS011;4449;50.872;4.714;2022-12-22T00:09:15;4.18;;;3.88;;
8825;SDS011;4449;50.872;4.714;2022-12-22T00:12:01;4.20;;;3.63;;
8825;SDS011;4449;50.872;4.714;2022-12-22T00:14:46;3.88;;;3.67;;
8825;SDS011;4449;50.872;4.714;2022-12-22T00:17:32;4.20;;;3.90;;
8825;SDS011;4449;50.872;4.714;2022-12-22T00:20:19;4.07;;;3.78;;
8825;SDS011;4449;50.872;4.714;2022-12-22T00:23:04;4.32;;;4.03;;
8825;SDS011;4449;50.872;4.714;2022-12-22T00:25:50;4.00;;;3.78;;
8825;SDS011;4449;50.872;4.714;2022-12-22T00:28:35;4.37;;;3.97;;
8825;SDS011;4449;50.872;4.714;2022-12-22T00:31:20;4.15;;;3.85;;
8825;SDS011;4449;50.872;4.714;2022-12-22T00:34:07;3.88;;;3.58;;
8825;SDS011;4449;50.872;4.714;2022-12-22T00:36:55;4.40;;;4.00;;
8825;SDS011;4449;50.872;4.714;2022-12-22T00:39:40;3.83;;;3.58;;
8825;SDS011;4449;50.872;4.714;2022-12-22T00:42:25;4.05;;;3.75;;
8825;SDS011;4449;50.872;4.714;2022-12-22T00:45:11;3.90;;;3.60;;
8825;SDS011;4449;50.872;4.714;2022-12-22T00:47:55;4.05;;;3.85;;
8825;SDS011;4449;50.872;4.714;2022-12-22T00:50:41;4.30;;;4.00;;
8825;SDS011;4449;50.872;4.714;2022-12-22T00:53:27;4.07;;;3.77;;
8825;SDS011;4449;50.872;4.714;2022-12-22T00:56:13;4.35;;;4.05;;
8825;SDS011;4449;50.872;4.714;2022-12-22T00:58:58;4.28;;;3.88;;
8825;SDS011;4449;50.872;4.714;2022-12-22T01:01:44;3.78;;;3.47;;
8825;SDS011;4449;50.872;4.714;2022-12-22T01:04:29;4.30;;;3.85;;
8825;SDS011;4449;50.872;4.714;2022-12-22T01:07:15;4.50;;;4.10;;
8825;SDS011;4449;50.872;4.714;2022-12-22T01:10:02;4.75;;;3.97;;
8825;SDS011;4449;50.872;4.714;2022-12-22T01:12:47;3.92;;;3.63;;
8825;SDS011;4449;50.872;4.714;2022-12-22T01:15:33;3.90;;;3.47;;
8825;SDS011;4449;50.872;4.714;2022-12-22T01:18:18;3.83;;;3.53;;
8825;SDS011;4449;50.872;4.714;2022-12-22T01:21:03;4.20;;;3.80;;
8825;SDS011;4449;50.872;4.714;2022-12-22T01:23:48;3.53;;;3.33;;
8825;SDS011;4449;50.872;4.714;2022-12-22T01:26:35;3.67;;;3.38;;
8825;SDS011;4449;50.872;4.714;2022-12-22T01:29:20;4.03;;;3.70;;
8825;SDS011;4449;50.872;4.714;2022-12-22T01:32:07;4.00;;;3.70;;
8825;SDS011;4449;50.872;4.714;2022-12-22T01:34:52;4.05;;;3.50;;
8825;SDS011;4449;50.872;4.714;2022-12-22T01:37:37;3.85;;;3.60;;
8825;SDS011;4449;50.872;4.714;2022-12-22T01:40:23;4.45;;;4.05;;
8825;SDS011;4449;50.872;4.714;2022-12-22T01:43:15;4.32;;;3.90;;
8825;SDS011;4449;50.872;4.714;2022-12-22T01:46:18;4.60;;;4.22;;
8825;SDS011;4449;50.872;4.714;2022-12-22T01:49:04;4.10;;;3.80;;
8825;SDS011;4449;50.872;4.714;2022-12-22T01:51:50;3.85;;;3.55;;
8825;SDS011;4449;50.872;4.714;2022-12-22T01:54:36;3.75;;;3.45;;
8825;SDS011;4449;50.872;4.714;2022-12-22T01:57:21;3.60;;;3.40;;
8825;SDS011;4449;50.872;4.714;2022-12-22T02:00:08;3.90;;;3.63;;
8825;SDS011;4449;50.872;4.714;2022-12-22T02:02:53;3.70;;;3.40;;
8825;SDS011;4449;50.872;4.714;2022-12-22T02:05:40;3.55;;;3.25;;
8825;SDS011;4449;50.872;4.714;2022-12-22T02:08:27;5.97;;;3.80;;
8825;SDS011;4449;50.872;4.714;2022-12-22T02:11:19;3.50;;;3.30;;
8825;SDS011;4449;50.872;4.714;2022-12-22T02:14:12;3.67;;;3.38;;
8825;SDS011;4449;50.872;4.714;2022-12-22T02:17:03;3.90;;;3.60;;
8825;SDS011;4449;50.872;4.714;2022-12-22T02:19:59;3.22;;;3.05;;
8825;SDS011;4449;50.872;4.714;2022-12-22T02:22:49;3.47;;;3.28;;
8825;SDS011;4449;50.872;4.714;2022-12-22T02:25:38;3.42;;;3.22;;
8825;SDS011;4449;50.872;4.714;2022-12-22T02:28:26;3.50;;;3.30;;
8825;SDS011;4449;50.872;4.714;2022-12-22T02:31:11;3.83;;;3.53;;
8825;SDS011;4449;50.872;4.714;2022-12-22T02:33:57;3.10;;;3.00;;
8825;SDS011;4449;50.872;4.714;2022-12-22T02:36:45;3.63;;;3.35;;
8825;SDS011;4449;50.872;4.714;2022-12-22T02:39:35;3.22;;;3.03;;
8825;SDS011;4449;50.872;4.714;2022-12-22T02:42:23;3.35;;;3.15;;
8825;SDS011;4449;50.872;4.714;2022-12-22T02:45:12;3.43;;;3.13;;
8825;SDS011;4449;50.872;4.714;2022-12-22T02:48:01;3.38;;;3.17;;
8825;SDS011;4449;50.872;4.714;2022-12-22T02:50:50;3.50;;;3.30;;
8825;SDS011;4449;50.872;4.714;2022-12-22T02:53:36;3.63;;;3.33;;
8825;SDS011;4449;50.872;4.714;2022-12-22T02:56:22;3.40;;;3.20;;
8825;SDS011;4449;50.872;4.714;2022-12-22T02:59:07;3.28;;;3.08;;
8825;SDS011;4449;50.872;4.714;2022-12-22T03:01:54;3.20;;;3.00;;
8825;SDS011;4449;50.872;4.714;2022-12-22T03:04:39;3.25;;;2.97;;
8825;SDS011;4449;50.872;4.714;2022-12-22T03:07:24;3.47;;;3.28;;
8825;SDS011;4449;50.872;4.714;2022-12-22T03:10:10;3.40;;;3.13;;
8825;SDS011;4449;50.872;4.714;2022-12-22T03:12:57;3.40;;;3.20;;
8825;SDS011;4449;50.872;4.714;2022-12-22T03:15:42;3.22;;;3.03;;
8825;SDS011;4449;50.872;4.714;2022-12-22T03:18:29;3.50;;;3.30;;
8825;SDS011;4449;50.872;4.714;2022-12-22T03:21:13;2.92;;;2.83;;
8825;SDS011;4449;50.872;4.714;2022-12-22T03:23:59;3.05;;;2.85;;
8825;SDS011;4449;50.872;4.714;2022-12-22T03:26:44;3.33;;;3.13;;
8825;SDS011;4449;50.872;4.714;2022-12-22T03:29:11;3.40;;;3.20;;
8825;SDS011;4449;50.872;4.714;2022-12-22T03:31:39;3.35;;;3.05;;
8825;SDS011;4449;50.872;4.714;2022-12-22T03:34:09;3.42;;;3.22;;
8825;SDS011;4449;50.872;4.714;2022-12-22T03:36:37;3.43;;;3.20;;
8825;SDS011;4449;50.872;4.714;2022-12-22T03:39:04;3.10;;;2.90;;
8825;SDS011;4449;50.872;4.714;2022-12-22T03:41:32;3.17;;;2.97;;
8825;SDS011;4449;50.872;4.714;2022-12-22T03:44:17;3.17;;;2.97;;
8825;SDS011;4449;50.872;4.714;2022-12-22T03:47:11;2.92;;;2.72;;
8825;SDS011;4449;50.872;4.714;2022-12-22T03:49:40;2.80;;;2.60;;
8825;SDS011;4449;50.872;4.714;2022-12-22T03:52:08;3.17;;;2.97;;
8825;SDS011;4449;50.872;4.714;2022-12-22T03:54:36;3.00;;;2.80;;
8825;SDS011;4449;50.872;4.714;2022-12-22T03:57:03;2.83;;;2.72;;
8825;SDS011;4449;50.872;4.714;2022-12-22T03:59:31;3.60;;;3.30;;
8825;SDS011;4449;50.872;4.714;2022-12-22T04:01:59;2.87;;;2.73;;
8825;SDS011;4449;50.872;4.714;2022-12-22T04:04:27;3.08;;;2.88;;
8825;SDS011;4449;50.872;4.714;2022-12-22T04:06:56;2.92;;;2.83;;
8825;SDS011;4449;50.872;4.714;2022-12-22T04:09:24;3.05;;;2.85;;
8825;SDS011;4449;50.872;4.714;2022-12-22T04:11:52;3.20;;;3.00;;
8825;SDS011;4449;50.872;4.714;2022-12-22T04:14:38;3.78;;;3.47;;
8825;SDS011;4449;50.872;4.714;2022-12-22T04:17:06;3.80;;;3.50;;
8825;SDS011;4449;50.872;4.714;2022-12-22T04:19:34;3.50;;;3.30;;
8825;SDS011;4449;50.872;4.714;2022-12-22T04:22:03;3.60;;;3.30;;
8825;SDS011;4449;50.872;4.714;2022-12-22T04:24:31;3.60;;;3.40;;
8825;SDS011;4449;50.872;4.714;2022-12-22T04:26:59;3.90;;;3.60;;
8825;SDS011;4449;50.872;4.714;2022-12-22T04:29:27;3.95;;;3.65;;
8825;SDS011;4449;50.872;4.714;2022-12-22T04:31:54;3.35;;;3.15;;
8825;SDS011;4449;50.872;4.714;2022-12-22T04:34:22;3.50;;;3.30;;
8825;SDS011;4449;50.872;4.714;2022-12-22T04:36:50;3.55;;;3.33;;
8825;SDS011;4449;50.872;4.714;2022-12-22T04:39:19;4.97;;;4.57;;
8825;SDS011;4449;50.872;4.714;2022-12-22T04:41:47;4.13;;;3.85;;
8825;SDS011;4449;50.872;4.714;2022-12-22T04:44:15;3.50;;;3.30;;
8825;SDS011;4449;50.872;4.714;2022-12-22T04:46:43;3.17;;;2.97;;
8825;SDS011;4449;50.872;4.714;2022-12-22T04:49:11;3.25;;;3.05;;
8825;SDS011;4449;50.872;4.714;2022-12-22T04:51:38;3.25;;;3.10;;
8825;SDS011;4449;50.872;4.714;2022-12-22T04:54:06;2.90;;;2.80;;
8825;SDS011;4449;50.872;4.714;2022-12-22T04:56:36;2.85;;;2.75;;
8825;SDS011;4449;50.872;4.714;2022-12-22T04:59:04;2.97;;;2.75;;
8825;SDS011;4449;50.872;4.714;2022-12-22T05:01:31;3.07;;;2.87;;
8825;SDS011;4449;50.872;4.714;2022-12-22T05:03:59;2.88;;;2.70;;
8825;SDS011;4449;50.872;4.714;2022-12-22T05:06:27;3.03;;;2.83;;
8825;SDS011;4449;50.872;4.714;2022-12-22T05:08:55;2.97;;;2.78;;
8825;SDS011;4449;50.872;4.714;2022-12-22T05:11:22;3.20;;;3.00;;
8825;SDS011;4449;50.872;4.714;2022-12-22T05:13:52;3.05;;;2.90;;
8825;SDS011;4449;50.872;4.714;2022-12-22T05:16:19;4.57;;;4.28;;
8825;SDS011;4449;50.872;4.714;2022-12-22T05:18:47;5.78;;;5.20;;
8825;SDS011;4449;50.872;4.714;2022-12-22T05:21:16;5.72;;;5.22;;
8825;SDS011;4449;50.872;4.714;2022-12-22T05:23:44;6.30;;;5.60;;
8825;SDS011;4449;50.872;4.714;2022-12-22T05:26:12;6.18;;;5.57;;
8825;SDS011;4449;50.872;4.714;2022-12-22T05:28:40;6.03;;;5.53;;
8825;SDS011;4449;50.872;4.714;2022-12-22T05:31:10;6.70;;;5.97;;
8825;SDS011;4449;50.872;4.714;2022-12-22T05:33:40;6.60;;;6.05;;
8825;SDS011;4449;50.872;4.714;2022-12-22T05:36:08;6.55;;;5.95;;
8825;SDS011;4449;50.872;4.714;2022-12-22T05:38:36;6.85;;;6.15;;
8825;SDS011;4449;50.872;4.714;2022-12-22T05:41:04;6.60;;;6.00;;
8825;SDS011;4449;50.872;4.714;2022-12-22T05:43:32;6.43;;;5.80;;
8825;SDS011;4449;50.872;4.714;2022-12-22T05:46:00;6.13;;;5.57;;
8825;SDS011;4449;50.872;4.714;2022-12-22T05:48:30;7.47;;;6.47;;
8825;SDS011;4449;50.872;4.714;2022-12-22T05:50:58;7.10;;;6.15;;
8825;SDS011;4449;50.872;4.714;2022-12-22T05:53:26;6.93;;;6.30;;
8825;SDS011;4449;50.872;4.714;2022-12-22T05:55:54;6.82;;;6.10;;
8825;SDS011;4449;50.872;4.714;2022-12-22T05:58:22;6.82;;;6.13;;
8825;SDS011;4449;50.872;4.714;2022-12-22T06:00:50;6.35;;;5.75;;
8825;SDS011;4449;50.872;4.714;2022-12-22T06:03:18;6.43;;;5.68;;
8825;SDS011;4449;50.872;4.714;2022-12-22T06:05:49;7.15;;;5.95;;
8825;SDS011;4449;50.872;4.714;2022-12-22T06:08:17;6.90;;;6.10;;
8825;SDS011;4449;50.872;4.714;2022-12-22T06:10:45;8.10;;;6.50;;
8825;SDS011;4449;50.872;4.714;2022-12-22T06:13:13;10.73;;;7.47;;
8825;SDS011;4449;50.872;4.714;2022-12-22T06:15:40;10.02;;;7.88;;
8825;SDS011;4449;50.872;4.714;2022-12-22T06:18:08;11.85;;;8.52;;
8825;SDS011;4449;50.872;4.714;2022-12-22T06:20:35;12.52;;;8.55;;
8825;SDS011;4449;50.872;4.714;2022-12-22T06:23:05;12.85;;;8.98;;
8825;SDS011;4449;50.872;4.714;2022-12-22T06:25:33;13.15;;;9.45;;
8825;SDS011;4449;50.872;4.714;2022-12-22T06:28:00;14.20;;;9.35;;
8825;SDS011;4449;50.872;4.714;2022-12-22T06:30:28;13.05;;;9.30;;
8825;SDS011;4449;50.872;4.714;2022-12-22T06:32:56;14.00;;;9.55;;
8825;SDS011;4449;50.872;4.714;2022-12-22T06:35:23;14.32;;;9.55;;
8825;SDS011;4449;50.872;4.714;2022-12-22T06:37:51;15.25;;;9.70;;
8825;SDS011;4449;50.872;4.714;2022-12-22T06:40:20;17.57;;;10.60;;
8825;SDS011;4449;50.872;4.714;2022-12-22T06:42:48;17.45;;;11.18;;
8825;SDS011;4449;50.872;4.714;2022-12-22T06:45:33;18.52;;;11.55;;
8825;SDS011;4449;50.872;4.714;2022-12-22T06:48:01;19.85;;;11.90;;
8825;SDS011;4449;50.872;4.714;2022-12-22T06:50:29;16.98;;;11.02;;
8825;SDS011;4449;50.872;4.714;2022-12-22T06:52:57;15.82;;;10.85;;
8825;SDS011;4449;50.872;4.714;2022-12-22T06:55:26;18.83;;;12.00;;
8825;SDS011;4449;50.872;4.714;2022-12-22T06:57:54;17.83;;;12.07;;
8825;SDS011;4449;50.872;4.714;2022-12-22T07:00:21;20.42;;;12.82;;
8825;SDS011;4449;50.872;4.714;2022-12-22T07:02:49;20.63;;;13.45;;
8825;SDS011;4449;50.872;4.714;2022-12-22T07:05:17;21.83;;;13.68;;
8825;SDS011;4449;50.872;4.714;2022-12-22T07:07:45;21.85;;;14.10;;
8825;SDS011;4449;50.872;4.714;2022-12-22T07:10:12;24.30;;;14.45;;
8825;SDS011;4449;50.872;4.714;2022-12-22T07:12:41;28.90;;;15.40;;
8825;SDS011;4449;50.872;4.714;2022-12-22T07:15:09;27.33;;;16.57;;
8825;SDS011;4449;50.872;4.714;2022-12-22T07:17:37;29.15;;;16.90;;
8825;SDS011;4449;50.872;4.714;2022-12-22T07:20:06;31.42;;;17.40;;
8825;SDS011;4449;50.872;4.714;2022-12-22T07:22:34;32.47;;;18.27;;
8825;SDS011;4449;50.872;4.714;2022-12-22T07:25:02;37.22;;;18.88;;
8825;SDS011;4449;50.872;4.714;2022-12-22T07:27:30;33.92;;;17.15;;
8825;SDS011;4449;50.872;4.714;2022-12-22T07:29:59;34.33;;;18.05;;
8825;SDS011;4449;50.872;4.714;2022-12-22T07:32:34;35.67;;;18.77;;
8825;SDS011;4449;50.872;4.714;2022-12-22T07:35:02;36.95;;;19.08;;
8825;SDS011;4449;50.872;4.714;2022-12-22T07:37:30;32.50;;;17.70;;
8825;SDS011;4449;50.872;4.714;2022-12-22T07:39:57;36.50;;;19.70;;
8825;SDS011;4449;50.872;4.714;2022-12-22T07:42:25;35.22;;;18.08;;
8825;SDS011;4449;50.872;4.714;2022-12-22T07:45:20;27.83;;;15.48;;
8825;SDS011;4449;50.872;4.714;2022-12-22T07:47:48;28.63;;;15.88;;
8825;SDS011;4449;50.872;4.714;2022-12-22T07:50:17;28.27;;;16.45;;
8825;SDS011;4449;50.872;4.714;2022-12-22T07:52:50;28.05;;;15.90;;
8825;SDS011;4449;50.872;4.714;2022-12-22T07:55:18;26.10;;;15.05;;
8825;SDS011;4449;50.872;4.714;2022-12-22T07:57:46;23.03;;;14.77;;
8825;SDS011;4449;50.872;4.714;2022-12-22T08:00:14;26.63;;;15.63;;
8825;SDS011;4449;50.872;4.714;2022-12-22T08:02:46;20.73;;;13.18;;
8825;SDS011;4449;50.872;4.714;2022-12-22T08:05:14;25.45;;;13.70;;
8825;SDS011;4449;50.872;4.714;2022-12-22T08:07:42;21.90;;;13.60;;
8825;SDS011;4449;50.872;4.714;2022-12-22T08:10:11;22.90;;;13.73;;
8825;SDS011;4449;50.872;4.714;2022-12-22T08:12:38;25.15;;;14.63;;
8825;SDS011;4449;50.872;4.714;2022-12-22T08:15:07;24.52;;;14.05;;
8825;SDS011;4449;50.872;4.714;2022-12-22T08:17:35;23.63;;;14.20;;
8825;SDS011;4449;50.872;4.714;2022-12-22T08:20:05;24.33;;;14.07;;
8825;SDS011;4449;50.872;4.714;2022-12-22T08:22:33;26.80;;;15.43;;
8825;SDS011;4449;50.872;4.714;2022-12-22T08:25:01;26.00;;;14.67;;
8825;SDS011;4449;50.872;4.714;2022-12-22T08:27:29;26.00;;;14.57;;
8825;SDS011;4449;50.872;4.714;2022-12-22T08:30:02;28.98;;;16.13;;
8825;SDS011;4449;50.872;4.714;2022-12-22T08:32:30;24.27;;;14.40;;
8825;SDS011;4449;50.872;4.714;2022-12-22T08:34:58;24.85;;;15.15;;
8825;SDS011;4449;50.872;4.714;2022-12-22T08:37:27;28.20;;;15.73;;
8825;SDS011;4449;50.872;4.714;2022-12-22T08:39:57;28.13;;;15.80;;
8825;SDS011;4449;50.872;4.714;2022-12-22T08:42:28;26.23;;;15.10;;
8825;SDS011;4449;50.872;4.714;2022-12-22T08:44:56;24.70;;;15.30;;
8825;SDS011;4449;50.872;4.714;2022-12-22T08:47:24;24.90;;;14.20;;
8825;SDS011;4449;50.872;4.714;2022-12-22T08:49:52;25.23;;;14.63;;
8825;SDS011;4449;50.872;4.714;2022-12-22T08:52:20;24.63;;;14.18;;
8825;SDS011;4449;50.872;4.714;2022-12-22T08:54:49;25.25;;;13.20;;
8825;SDS011;4449;50.872;4.714;2022-12-22T08:57:17;21.35;;;12.77;;
8825;SDS011;4449;50.872;4.714;2022-12-22T08:59:44;21.52;;;13.13;;
8825;SDS011;4449;50.872;4.714;2022-12-22T09:02:13;20.58;;;12.43;;
8825;SDS011;4449;50.872;4.714;2022-12-22T09:04:40;20.58;;;12.57;;
8825;SDS011;4449;50.872;4.714;2022-12-22T09:07:08;20.90;;;13.75;;
8825;SDS011;4449;50.872;4.714;2022-12-22T09:09:36;23.58;;;14.27;;
8825;SDS011;4449;50.872;4.714;2022-12-22T09:12:05;29.75;;;15.18;;
8825;SDS011;4449;50.872;4.714;2022-12-22T09:14:33;23.23;;;14.23;;
8825;SDS011;4449;50.872;4.714;2022-12-22T09:17:01;25.63;;;14.90;;
8825;SDS011;4449;50.872;4.714;2022-12-22T09:19:29;24.35;;;14.68;;
8825;SDS011;4449;50.872;4.714;2022-12-22T09:21:56;27.27;;;15.00;;
8825;SDS011;4449;50.872;4.714;2022-12-22T09:24:24;23.85;;;14.60;;
8825;SDS011;4449;50.872;4.714;2022-12-22T09:26:52;23.25;;;13.98;;
8825;SDS011;4449;50.872;4.714;2022-12-22T09:29:21;22.15;;;12.77;;
8825;SDS011;4449;50.872;4.714;2022-12-22T09:31:49;24.40;;;13.95;;
8825;SDS011;4449;50.872;4.714;2022-12-22T09:34:17;22.10;;;13.88;;
8825;SDS011;4449;50.872;4.714;2022-12-22T09:36:45;20.27;;;13.35;;
8825;SDS011;4449;50.872;4.714;2022-12-22T09:39:13;23.98;;;13.90;;
8825;SDS011;4449;50.872;4.714;2022-12-22T09:41:42;22.53;;;12.27;;
8825;SDS011;4449;50.872;4.714;2022-12-22T10:41:58;19.08;;;11.15;;
8825;SDS011;4449;50.872;4.714;2022-12-22T10:44:27;18.53;;;12.00;;
8825;SDS011;4449;50.872;4.714;2022-12-22T10:46:56;19.25;;;12.05;;
8825;SDS011;4449;50.872;4.714;2022-12-22T10:49:25;20.27;;;13.35;;
8825;SDS011;4449;50.872;4.714;2022-12-22T10:51:54;19.55;;;13.13;;
8825;SDS011;4449;50.872;4.714;2022-12-22T10:54:32;19.88;;;13.15;;
8825;SDS011;4449;50.872;4.714;2022-12-22T10:57:03;17.45;;;12.57;;
8825;SDS011;4449;50.872;4.714;2022-12-22T10:59:32;16.42;;;12.05;;
8825;SDS011;4449;50.872;4.714;2022-12-22T11:02:23;20.73;;;12.23;;
8825;SDS011;4449;50.872;4.714;2022-12-22T11:04:51;18.65;;;12.02;;
8825;SDS011;4449;50.872;4.714;2022-12-22T11:07:20;12.90;;;9.80;;
8825;SDS011;4449;50.872;4.714;2022-12-22T11:09:48;12.55;;;9.63;;
8825;SDS011;4449;50.872;4.714;2022-12-22T11:12:18;10.35;;;8.15;;
8825;SDS011;4449;50.872;4.714;2022-12-22T11:14:49;11.43;;;8.27;;
8825;SDS011;4449;50.872;4.714;2022-12-22T11:17:21;9.50;;;7.53;;
8825;SDS011;4449;50.872;4.714;2022-12-22T11:19:53;13.70;;;8.38;;
8825;SDS011;4449;50.872;4.714;2022-12-22T11:22:26;9.55;;;7.30;;
8825;SDS011;4449;50.872;4.714;2022-12-22T11:25:02;8.75;;;7.40;;
8825;SDS011;4449;50.872;4.714;2022-12-22T11:27:36;7.18;;;6.28;;
8825;SDS011;4449;50.872;4.714;2022-12-22T11:30:09;6.90;;;5.60;;
8825;SDS011;4449;50.872;4.714;2022-12-22T11:35:27;6.68;;;5.68;;
8825;SDS011;4449;50.872;4.714;2022-12-22T11:37:58;6.63;;;5.53;;
8825;SDS011;4449;50.872;4.714;2022-12-22T11:40:29;6.68;;;5.78;;
8825;SDS011;4449;50.872;4.714;2022-12-22T11:43:08;7.68;;;5.47;;
8825;SDS011;4449;50.872;4.714;2022-12-22T11:45:40;5.88;;;5.22;;
8825;SDS011;4449;50.872;4.714;2022-12-22T11:48:18;5.68;;;5.07;;
8825;SDS011;4449;50.872;4.714;2022-12-22T11:50:47;5.75;;;4.68;;
8825;SDS011;4449;50.872;4.714;2022-12-22T11:53:21;4.90;;;4.22;;
8825;SDS011;4449;50.872;4.714;2022-12-22T11:55:57;5.65;;;3.90;;
8825;SDS011;4449;50.872;4.714;2022-12-22T11:58:32;4.22;;;3.83;;
8825;SDS011;4449;50.872;4.714;2022-12-22T12:01:07;5.70;;;3.90;;
8825;SDS011;4449;50.872;4.714;2022-12-22T12:03:52;4.70;;;3.63;;
8825;SDS011;4449;50.872;4.714;2022-12-22T12:06:27;4.25;;;3.85;;
8825;SDS011;4449;50.872;4.714;2022-12-22T12:09:00;5.57;;;3.80;;
8825;SDS011;4449;50.872;4.714;2022-12-22T12:11:32;4.13;;;3.00;;
8825;SDS011;4449;50.872;4.714;2022-12-22T12:14:03;4.22;;;3.17;;
8825;SDS011;4449;50.872;4.714;2022-12-22T12:16:37;4.00;;;3.20;;
8825;SDS011;4449;50.872;4.714;2022-12-22T12:21:48;3.30;;;2.80;;
8825;SDS011;4449;50.872;4.714;2022-12-22T12:24:20;2.80;;;2.53;;
8825;SDS011;4449;50.872;4.714;2022-12-22T12:26:55;4.28;;;3.55;;
8825;SDS011;4449;50.872;4.714;2022-12-22T12:29:26;2.75;;;2.53;;
8825;SDS011;4449;50.872;4.714;2022-12-22T12:31:56;2.08;;;1.88;;
8825;SDS011;4449;50.872;4.714;2022-12-22T12:34:25;2.30;;;1.83;;
8825;SDS011;4449;50.872;4.714;2022-12-22T12:36:56;3.47;;;2.38;;
8825;SDS011;4449;50.872;4.714;2022-12-22T12:39:27;2.60;;;2.30;;
8825;SDS011;4449;50.872;4.714;2022-12-22T12:41:58;2.20;;;1.90;;
8825;SDS011;4449;50.872;4.714;2022-12-22T12:44:30;2.20;;;2.10;;
8825;SDS011;4449;50.872;4.714;2022-12-22T12:49:52;2.50;;;2.40;;
8825;SDS011;4449;50.872;4.714;2022-12-22T12:57:45;2.20;;;2.10;;
8825;SDS011;4449;50.872;4.714;2022-12-22T13:02:57;2.50;;;2.10;;
8825;SDS011;4449;50.872;4.714;2022-12-22T13:05:33;2.45;;;2.10;;
8825;SDS011;4449;50.872;4.714;2022-12-22T13:08:16;4.05;;;1.70;;
8825;SDS011;4449;50.872;4.714;2022-12-22T13:10:45;2.35;;;2.15;;
8825;SDS011;4449;50.872;4.714;2022-12-22T13:18:50;1.77;;;1.70;;
8825;SDS011;4449;50.872;4.714;2022-12-22T13:21:23;2.40;;;2.22;;
8825;SDS011;4449;50.872;4.714;2022-12-22T13:23:55;2.83;;;2.63;;
8825;SDS011;4449;50.872;4.714;2022-12-22T13:26:24;1.52;;;1.42;;
8825;SDS011;4449;50.872;4.714;2022-12-22T13:28:55;1.70;;;1.60;;
8825;SDS011;4449;50.872;4.714;2022-12-22T13:31:23;1.83;;;1.73;;
8825;SDS011;4449;50.872;4.714;2022-12-22T13:34:00;1.88;;;1.88;;
8825;SDS011;4449;50.872;4.714;2022-12-22T13:36:30;2.20;;;2.10;;
8825;SDS011;4449;50.872;4.714;2022-12-22T13:38:58;1.83;;;1.73;;
8825;SDS011;4449;50.872;4.714;2022-12-22T13:41:26;2.30;;;1.70;;
8825;SDS011;4449;50.872;4.714;2022-12-22T13:43:57;1.97;;;1.93;;
8825;SDS011;4449;50.872;4.714;2022-12-22T13:46:26;1.63;;;1.63;;
8825;SDS011;4449;50.872;4.714;2022-12-22T13:48:54;2.40;;;2.20;;
8825;SDS011;4449;50.872;4.714;2022-12-22T13:51:26;2.65;;;2.45;;
8825;SDS011;4449;50.872;4.714;2022-12-22T13:53:57;2.10;;;1.90;;
8825;SDS011;4449;50.872;4.714;2022-12-22T13:56:26;2.33;;;2.17;;
8825;SDS011;4449;50.872;4.714;2022-12-22T13:59:00;2.90;;;2.70;;
8825;SDS011;4449;50.872;4.714;2022-12-22T14:01:28;2.67;;;2.47;;
8825;SDS011;4449;50.872;4.714;2022-12-22T14:03:57;2.38;;;2.28;;
8825;SDS011;4449;50.872;4.714;2022-12-22T14:06:28;2.60;;;2.40;;
8825;SDS011;4449;50.872;4.714;2022-12-22T14:09:12;2.67;;;2.47;;
8825;SDS011;4449;50.872;4.714;2022-12-22T14:11:40;3.83;;;3.53;;
8825;SDS011;4449;50.872;4.714;2022-12-22T14:14:09;3.20;;;3.05;;
8825;SDS011;4449;50.872;4.714;2022-12-22T14:16:41;3.28;;;3.03;;
8825;SDS011;4449;50.872;4.714;2022-12-22T14:19:10;3.00;;;2.90;;
8825;SDS011;4449;50.872;4.714;2022-12-22T14:21:39;3.80;;;3.50;;
8825;SDS011;4449;50.872;4.714;2022-12-22T14:24:09;4.05;;;3.72;;
8825;SDS011;4449;50.872;4.714;2022-12-22T14:26:38;3.80;;;3.53;;
8825;SDS011;4449;50.872;4.714;2022-12-22T14:29:06;3.70;;;3.28;;
8825;SDS011;4449;50.872;4.714;2022-12-22T14:31:49;4.65;;;3.88;;
8825;SDS011;4449;50.872;4.714;2022-12-22T14:34:22;5.18;;;3.60;;
8825;SDS011;4449;50.872;4.714;2022-12-22T14:36:52;5.25;;;3.78;;
8825;SDS011;4449;50.872;4.714;2022-12-22T14:39:21;5.90;;;4.00;;
8825;SDS011;4449;50.872;4.714;2022-12-22T14:41:49;6.18;;;4.00;;
8825;SDS011;4449;50.872;4.714;2022-12-22T14:44:19;6.13;;;4.25;;
8825;SDS011;4449;50.872;4.714;2022-12-22T14:46:59;9.65;;;4.68;;
8825;SDS011;4449;50.872;4.714;2022-12-22T14:49:28;6.47;;;3.80;;
8825;SDS011;4449;50.872;4.714;2022-12-22T14:51:59;8.98;;;4.20;;
8825;SDS011;4449;50.872;4.714;2022-12-22T14:54:29;5.47;;;3.65;;
8825;SDS011;4449;50.872;4.714;2022-12-22T14:56:58;8.48;;;4.28;;
8825;SDS011;4449;50.872;4.714;2022-12-22T14:59:27;7.72;;;3.92;;
8825;SDS011;4449;50.872;4.714;2022-12-22T15:01:57;11.60;;;4.45;;
8825;SDS011;4449;50.872;4.714;2022-12-22T15:04:25;13.38;;;4.32;;
8825;SDS011;4449;50.872;4.714;2022-12-22T15:07:04;13.05;;;4.00;;
8825;SDS011;4449;50.872;4.714;2022-12-22T15:09:32;12.55;;;5.20;;
8825;SDS011;4449;50.872;4.714;2022-12-22T15:12:04;13.18;;;4.38;;
8825;SDS011;4449;50.872;4.714;2022-12-22T15:14:33;11.23;;;4.70;;
8825;SDS011;4449;50.872;4.714;2022-12-22T15:17:02;17.35;;;4.50;;
8825;SDS011;4449;50.872;4.714;2022-12-22T15:19:30;13.68;;;4.32;;
8825;SDS011;4449;50.872;4.714;2022-12-22T15:21:58;15.95;;;4.85;;
8825;SDS011;4449;50.872;4.714;2022-12-22T15:24:28;15.98;;;4.43;;
8825;SDS011;4449;50.872;4.714;2022-12-22T15:26:55;13.02;;;4.50;;
8825;SDS011;4449;50.872;4.714;2022-12-22T15:29:23;14.60;;;5.13;;
8825;SDS011;4449;50.872;4.714;2022-12-22T15:31:51;13.82;;;4.88;;
8825;SDS011;4449;50.872;4.714;2022-12-22T15:34:20;19.27;;;4.93;;
8825;SDS011;4449;50.872;4.714;2022-12-22T15:36:48;18.50;;;4.97;;
8825;SDS011;4449;50.872;4.714;2022-12-22T15:39:17;18.80;;;5.35;;
8825;SDS011;4449;50.872;4.714;2022-12-22T15:41:46;19.57;;;5.23;;
8825;SDS011;4449;50.872;4.714;2022-12-22T15:44:14;19.97;;;5.30;;
8825;SDS011;4449;50.872;4.714;2022-12-22T15:46:43;15.77;;;5.32;;
8825;SDS011;4449;50.872;4.714;2022-12-22T15:49:12;17.42;;;4.65;;
8825;SDS011;4449;50.872;4.714;2022-12-22T15:51:40;23.58;;;5.43;;
8825;SDS011;4449;50.872;4.714;2022-12-22T15:54:10;29.90;;;6.40;;
8825;SDS011;4449;50.872;4.714;2022-12-22T15:56:39;20.35;;;5.70;;
8825;SDS011;4449;50.872;4.714;2022-12-22T15:59:10;28.67;;;6.30;;
8825;SDS011;4449;50.872;4.714;2022-12-22T16:01:39;26.45;;;6.45;;
8825;SDS011;4449;50.872;4.714;2022-12-22T16:04:06;25.92;;;6.07;;
8825;SDS011;4449;50.872;4.714;2022-12-22T16:06:34;25.08;;;6.50;;
8825;SDS011;4449;50.872;4.714;2022-12-22T16:09:02;25.02;;;6.18;;
8825;SDS011;4449;50.872;4.714;2022-12-22T16:11:32;28.48;;;7.63;;
8825;SDS011;4449;50.872;4.714;2022-12-22T16:13:59;25.17;;;6.53;;
8825;SDS011;4449;50.872;4.714;2022-12-22T16:16:29;23.20;;;6.18;;
8825;SDS011;4449;50.872;4.714;2022-12-22T16:18:57;26.60;;;6.18;;
8825;SDS011;4449;50.872;4.714;2022-12-22T16:21:27;31.60;;;6.47;;
8825;SDS011;4449;50.872;4.714;2022-12-22T16:23:55;29.52;;;6.10;;
8825;SDS011;4449;50.872;4.714;2022-12-22T16:26:24;30.17;;;6.37;;
8825;SDS011;4449;50.872;4.714;2022-12-22T16:28:52;27.02;;;6.68;;
8825;SDS011;4449;50.872;4.714;2022-12-22T16:31:23;31.08;;;6.18;;
8825;SDS011;4449;50.872;4.714;2022-12-22T16:33:52;31.20;;;6.55;;
8825;SDS011;4449;50.872;4.714;2022-12-22T16:36:20;26.15;;;6.78;;
8825;SDS011;4449;50.872;4.714;2022-12-22T16:38:48;30.60;;;6.13;;
8825;SDS011;4449;50.872;4.714;2022-12-22T16:41:21;37.63;;;7.65;;
8825;SDS011;4449;50.872;4.714;2022-12-22T16:43:49;35.17;;;7.32;;
8825;SDS011;4449;50.872;4.714;2022-12-22T16:46:18;36.90;;;7.78;;
8825;SDS011;4449;50.872;4.714;2022-12-22T16:48:47;33.80;;;7.90;;
8825;SDS011;4449;50.872;4.714;2022-12-22T16:51:18;38.35;;;8.30;;
8825;SDS011;4449;50.872;4.714;2022-12-22T16:53:47;31.45;;;6.85;;
8825;SDS011;4449;50.872;4.714;2022-12-22T16:56:16;32.45;;;6.97;;
8825;SDS011;4449;50.872;4.714;2022-12-22T16:58:45;35.70;;;8.02;;
8825;SDS011;4449;50.872;4.714;2022-12-22T17:01:17;39.08;;;7.53;;
8825;SDS011;4449;50.872;4.714;2022-12-22T17:03:46;30.95;;;7.82;;